sensor_id;sensor_type;location;lat;lon;timestamp;pressure;altitude;pressure_sealevel;temperature;humidity
7836;BME280;3963;42.658;23.298;2022-11-15T00:00:46;58545.69;;;3.15;100.00
7836;BME280;3963;42.658;23.298;2022-11-15T00:03:15;58546.03;;;3.10;100.00
7836;BME280;3963;42.658;23.298;2022-11-15T00:05:42;58537.22;;;3.07;100.00
7836;BME280;3963;42.658;23.298;2022-11-15T00:08:09;58547.63;;;3.12;100.00
7836;BME280;3963;42.658;23.298;2022-11-15T00:10:37;58562.44;;;3.11;100.00
7836;BME280;3963;42.658;23.298;2022-11-15T00:13:05;58527.09;;;3.09;100.00
7836;BME280;3963;42.658;23.298;2022-11-15T00:15:34;58540.56;;;3.15;100.00
7836;BME280;3963;42.658;23.298;2022-11-15T00:18:02;58576.38;;;3.15;100.00
7836;BME280;3963;42.658;23.298;2022-11-15T00:20:30;58537.47;;;3.14;100.00
7836;BME280;3963;42.658;23.298;2022-11-15T00:22:57;58584.47;;;3.13;100.00
7836;BME280;3963;42.658;23.298;2022-11-15T00:25:24;58575.31;;;3.14;100.00
7836;BME280;3963;42.658;23.298;2022-11-15T00:27:55;58551.25;;;2.98;100.00
7836;BME280;3963;42.658;23.298;2022-11-15T00:30:22;58532.97;;;3.03;100.00
7836;BME280;3963;42.658;23.298;2022-11-15T00:32:49;58560.56;;;3.02;100.00
7836;BME280;3963;42.658;23.298;2022-11-15T00:35:16;58535.78;;;2.96;100.00
7836;BME280;3963;42.658;23.298;2022-11-15T00:37:44;58532.28;;;2.97;100.00
7836;BME280;3963;42.658;23.298;2022-11-15T00:40:12;58553.25;;;2.98;100.00
7836;BME280;3963;42.658;23.298;2022-11-15T00:42:39;58547.72;;;3.00;100.00
7836;BME280;3963;42.658;23.298;2022-11-15T00:45:07;58537.22;;;2.92;100.00
7836;BME280;3963;42.658;23.298;2022-11-15T00:47:34;58536.59;;;2.89;100.00
7836;BME280;3963;42.658;23.298;2022-11-15T00:50:01;58516.69;;;2.90;100.00
7836;BME280;3963;42.658;23.298;2022-11-15T00:52:28;58503.38;;;2.89;100.00
7836;BME280;3963;42.658;23.298;2022-11-15T00:54:56;58540.72;;;2.91;100.00
7836;BME280;3963;42.658;23.298;2022-11-15T00:57:23;58503.38;;;2.89;100.00
7836;BME280;3963;42.658;23.298;2022-11-15T00:59:50;58521.06;;;2.84;100.00
7836;BME280;3963;42.658;23.298;2022-11-15T01:02:17;58502.75;;;2.86;100.00
7836;BME280;3963;42.658;23.298;2022-11-15T01:04:44;58520.56;;;2.84;100.00
7836;BME280;3963;42.658;23.298;2022-11-15T01:07:11;58511.91;;;2.85;100.00
7836;BME280;3963;42.658;23.298;2022-11-15T01:09:37;58529.81;;;2.85;100.00
7836;BME280;3963;42.658;23.298;2022-11-15T01:12:06;58551.41;;;2.89;100.00
7836;BME280;3963;42.658;23.298;2022-11-15T01:14:33;58537.22;;;2.92;100.00
7836;BME280;3963;42.658;23.298;2022-11-15T01:17:00;58537.75;;;2.93;100.00
7836;BME280;3963;42.658;23.298;2022-11-15T01:19:26;58549.56;;;2.94;100.00
7836;BME280;3963;42.658;23.298;2022-11-15T01:21:53;58517.91;;;2.96;100.00
7836;BME280;3963;42.658;23.298;2022-11-15T01:24:20;58539.25;;;2.92;100.00
7836;BME280;3963;42.658;23.298;2022-11-15T01:26:47;58520.91;;;2.94;100.00
7836;BME280;3963;42.658;23.298;2022-11-15T01:29:15;58548.16;;;2.98;100.00
7836;BME280;3963;42.658;23.298;2022-11-15T01:31:42;58546.91;;;2.92;100.00
7836;BME280;3963;42.658;23.298;2022-11-15T01:34:09;58550.97;;;2.91;100.00
7836;BME280;3963;42.658;23.298;2022-11-15T01:36:35;58511.13;;;2.92;100.00
7836;BME280;3963;42.658;23.298;2022-11-15T01:39:02;58544.81;;;2.90;100.00
7836;BME280;3963;42.658;23.298;2022-11-15T01:41:31;58527.00;;;2.92;100.00
7836;BME280;3963;42.658;23.298;2022-11-15T01:44:34;58542.75;;;2.90;100.00
7836;BME280;3963;42.658;23.298;2022-11-15T01:47:08;58526.81;;;2.87;100.00
7836;BME280;3963;42.658;23.298;2022-11-15T01:49:38;58518.00;;;2.84;100.00
7836;BME280;3963;42.658;23.298;2022-11-15T01:52:09;58489.09;;;2.75;100.00
7836;BME280;3963;42.658;23.298;2022-11-15T01:54:39;58503.44;;;2.62;100.00
7836;BME280;3963;42.658;23.298;2022-11-15T01:57:08;58485.03;;;2.62;100.00
7836;BME280;3963;42.658;23.298;2022-11-15T01:59:38;58510.94;;;2.57;100.00
7836;BME280;3963;42.658;23.298;2022-11-15T02:02:06;58510.59;;;2.62;100.00
7836;BME280;3963;42.658;23.298;2022-11-15T02:04:37;58462.06;;;2.62;100.00
7836;BME280;3963;42.658;23.298;2022-11-15T02:07:07;58458.97;;;2.47;100.00
7836;BME280;3963;42.658;23.298;2022-11-15T02:09:36;58409.28;;;2.43;100.00
7836;BME280;3963;42.658;23.298;2022-11-15T02:12:04;58490.50;;;2.57;100.00
7836;BME280;3963;42.658;23.298;2022-11-15T02:14:32;58474.13;;;2.56;100.00
7836;BME280;3963;42.658;23.298;2022-11-15T02:17:08;58494.91;;;2.52;100.00
7836;BME280;3963;42.658;23.298;2022-11-15T02:20:05;58489.88;;;2.54;100.00
7836;BME280;3963;42.658;23.298;2022-11-15T02:22:43;58483.63;;;2.65;100.00
7836;BME280;3963;42.658;23.298;2022-11-15T02:25:35;58525.75;;;2.71;100.00
7836;BME280;3963;42.658;23.298;2022-11-15T02:31:11;58511.38;;;2.70;100.00
7836;BME280;3963;42.658;23.298;2022-11-15T02:33:44;58524.69;;;2.70;100.00
7836;BME280;3963;42.658;23.298;2022-11-15T02:36:25;58486.28;;;2.68;100.00
7836;BME280;3963;42.658;23.298;2022-11-15T02:38:59;58495.59;;;2.57;100.00
7836;BME280;3963;42.658;23.298;2022-11-15T02:41:32;58481.25;;;2.56;100.00
7836;BME280;3963;42.658;23.298;2022-11-15T02:44:03;58482.22;;;2.54;100.00
7836;BME280;3963;42.658;23.298;2022-11-15T02:46:37;58473.22;;;2.46;100.00
7836;BME280;3963;42.658;23.298;2022-11-15T02:49:26;58467.59;;;2.60;100.00
7836;BME280;3963;42.658;23.298;2022-11-15T02:51:55;58509.59;;;2.63;100.00
7836;BME280;3963;42.658;23.298;2022-11-15T02:54:24;58521.50;;;2.67;100.00
7836;BME280;3963;42.658;23.298;2022-11-15T02:56:53;58514.81;;;2.66;100.00
7836;BME280;3963;42.658;23.298;2022-11-15T03:02:31;58492.09;;;2.73;100.00
7836;BME280;3963;42.658;23.298;2022-11-15T03:05:07;58521.00;;;2.82;100.00
7836;BME280;3963;42.658;23.298;2022-11-15T03:07:43;58528.41;;;2.89;100.00
7836;BME280;3963;42.658;23.298;2022-11-15T03:10:18;58492.97;;;2.84;100.00
7836;BME280;3963;42.658;23.298;2022-11-15T03:12:53;58494.38;;;2.81;100.00
7836;BME280;3963;42.658;23.298;2022-11-15T03:15:29;58544.06;;;2.84;100.00
7836;BME280;3963;42.658;23.298;2022-11-15T03:18:02;58544.44;;;2.94;100.00
7836;BME280;3963;42.658;23.298;2022-11-15T03:20:31;58539.16;;;3.04;100.00
7836;BME280;3963;42.658;23.298;2022-11-15T03:23:01;58585.53;;;3.14;100.00
7836;BME280;3963;42.658;23.298;2022-11-15T03:25:31;58535.63;;;3.20;100.00
7836;BME280;3963;42.658;23.298;2022-11-15T03:28:03;58597.47;;;3.32;100.00
7836;BME280;3963;42.658;23.298;2022-11-15T03:30:32;58573.66;;;3.39;100.00
7836;BME280;3963;42.658;23.298;2022-11-15T03:33:04;58609.22;;;3.46;100.00
7836;BME280;3963;42.658;23.298;2022-11-15T03:35:34;58591.09;;;3.56;100.00
7836;BME280;3963;42.658;23.298;2022-11-15T03:38:06;58626.06;;;3.60;100.00
7836;BME280;3963;42.658;23.298;2022-11-15T03:40:39;58644.69;;;3.65;100.00
7836;BME280;3963;42.658;23.298;2022-11-15T03:43:10;58620.78;;;3.69;100.00
7836;BME280;3963;42.658;23.298;2022-11-15T03:45:44;58637.53;;;3.80;100.00
7836;BME280;3963;42.658;23.298;2022-11-15T03:48:18;58660.75;;;3.85;100.00
7836;BME280;3963;42.658;23.298;2022-11-15T03:50:47;58656.06;;;3.83;100.00
7836;BME280;3963;42.658;23.298;2022-11-15T03:53:14;58663.13;;;3.95;100.00
7836;BME280;3963;42.658;23.298;2022-11-15T03:55:41;58681.41;;;3.90;100.00
7836;BME280;3963;42.658;23.298;2022-11-15T03:58:08;58646.19;;;3.94;100.00
7836;BME280;3963;42.658;23.298;2022-11-15T04:00:35;58670.19;;;3.92;100.00
7836;BME280;3963;42.658;23.298;2022-11-15T04:03:02;58676.31;;;4.05;100.00
7836;BME280;3963;42.658;23.298;2022-11-15T04:05:30;58673.38;;;4.10;100.00
7836;BME280;3963;42.658;23.298;2022-11-15T04:07:57;58673.91;;;4.10;100.00
7836;BME280;3963;42.658;23.298;2022-11-15T04:10:24;58693.78;;;4.07;100.00
7836;BME280;3963;42.658;23.298;2022-11-15T04:12:50;58676.56;;;4.13;100.00
7836;BME280;3963;42.658;23.298;2022-11-15T04:15:19;58678.09;;;4.12;100.00
7836;BME280;3963;42.658;23.298;2022-11-15T04:17:47;58693.78;;;4.22;100.00
7836;BME280;3963;42.658;23.298;2022-11-15T04:20:16;58693.63;;;4.17;100.00
7836;BME280;3963;42.658;23.298;2022-11-15T04:23:04;58699.63;;;4.13;100.00
7836;BME280;3963;42.658;23.298;2022-11-15T04:25:50;58683.53;;;4.22;100.00
7836;BME280;3963;42.658;23.298;2022-11-15T04:28:18;58708.19;;;4.23;100.00
7836;BME280;3963;42.658;23.298;2022-11-15T04:30:44;58654.94;;;3.95;100.00
7836;BME280;3963;42.658;23.298;2022-11-15T04:33:11;58618.38;;;3.74;100.00
7836;BME280;3963;42.658;23.298;2022-11-15T04:35:38;58623.31;;;3.69;100.00
7836;BME280;3963;42.658;23.298;2022-11-15T04:38:09;58629.50;;;3.85;100.00
7836;BME280;3963;42.658;23.298;2022-11-15T04:40:35;58694.50;;;3.98;100.00
7836;BME280;3963;42.658;23.298;2022-11-15T04:43:02;58651.03;;;3.86;100.00
7836;BME280;3963;42.658;23.298;2022-11-15T04:45:29;58655.63;;;3.85;100.00
7836;BME280;3963;42.658;23.298;2022-11-15T04:47:56;58629.16;;;3.89;100.00
7836;BME280;3963;42.658;23.298;2022-11-15T04:50:23;58637.63;;;3.83;100.00
7836;BME280;3963;42.658;23.298;2022-11-15T04:52:51;58607.81;;;3.79;100.00
7836;BME280;3963;42.658;23.298;2022-11-15T04:55:20;58602.78;;;3.81;100.00
7836;BME280;3963;42.658;23.298;2022-11-15T04:57:47;58634.63;;;3.85;100.00
7836;BME280;3963;42.658;23.298;2022-11-15T05:00:16;58617.41;;;3.90;100.00
7836;BME280;3963;42.658;23.298;2022-11-15T05:02:43;58637.81;;;3.88;100.00
7836;BME280;3963;42.658;23.298;2022-11-15T05:05:27;58624.75;;;3.80;100.00
7836;BME280;3963;42.658;23.298;2022-11-15T05:07:54;58605.66;;;3.62;100.00
7836;BME280;3963;42.658;23.298;2022-11-15T05:10:23;58654.50;;;3.67;100.00
7836;BME280;3963;42.658;23.298;2022-11-15T05:12:49;58631.63;;;3.72;100.00
7836;BME280;3963;42.658;23.298;2022-11-15T05:15:16;58653.25;;;3.61;100.00
7836;BME280;3963;42.658;23.298;2022-11-15T05:17:43;58591.22;;;3.73;100.00
7836;BME280;3963;42.658;23.298;2022-11-15T05:20:10;58626.06;;;3.74;100.00
7836;BME280;3963;42.658;23.298;2022-11-15T05:22:38;58629.50;;;3.85;100.00
7836;BME280;3963;42.658;23.298;2022-11-15T05:25:06;58644.34;;;3.84;100.00
7836;BME280;3963;42.658;23.298;2022-11-15T05:27:34;58641.69;;;3.82;100.00
7836;BME280;3963;42.658;23.298;2022-11-15T05:30:01;58642.13;;;3.80;100.00
7836;BME280;3963;42.658;23.298;2022-11-15T05:32:28;58662.00;;;3.91;100.00
7836;BME280;3963;42.658;23.298;2022-11-15T05:34:55;58666.50;;;3.88;100.00
7836;BME280;3963;42.658;23.298;2022-11-15T05:37:22;58656.00;;;3.96;100.00
7836;BME280;3963;42.658;23.298;2022-11-15T05:39:49;58651.22;;;3.91;100.00
7836;BME280;3963;42.658;23.298;2022-11-15T05:42:16;58683.53;;;3.92;100.00
7836;BME280;3963;42.658;23.298;2022-11-15T05:44:48;58677.34;;;3.91;100.00
7836;BME280;3963;42.658;23.298;2022-11-15T05:47:18;58665.28;;;3.97;100.00
7836;BME280;3963;42.658;23.298;2022-11-15T05:49:47;58666.69;;;3.94;100.00
7836;BME280;3963;42.658;23.298;2022-11-15T05:52:16;58630.94;;;3.81;100.00
7836;BME280;3963;42.658;23.298;2022-11-15T05:54:46;58630.75;;;3.91;100.00
7836;BME280;3963;42.658;23.298;2022-11-15T05:57:14;58677.28;;;4.04;100.00
7836;BME280;3963;42.658;23.298;2022-11-15T05:59:41;58648.41;;;3.98;100.00
7836;BME280;3963;42.658;23.298;2022-11-15T06:02:11;58626.75;;;3.95;100.00
7836;BME280;3963;42.658;23.298;2022-11-15T06:04:38;58671.34;;;3.96;100.00
7836;BME280;3963;42.658;23.298;2022-11-15T06:07:05;58635.69;;;3.86;100.00
7836;BME280;3963;42.658;23.298;2022-11-15T06:09:31;58641.25;;;3.84;100.00
7836;BME280;3963;42.658;23.298;2022-11-15T06:11:58;58602.31;;;3.54;100.00
7836;BME280;3963;42.658;23.298;2022-11-15T06:14:25;58587.75;;;3.48;100.00
7836;BME280;3963;42.658;23.298;2022-11-15T06:16:52;58634.19;;;3.58;100.00
7836;BME280;3963;42.658;23.298;2022-11-15T06:19:20;58606.38;;;3.68;100.00
7836;BME280;3963;42.658;23.298;2022-11-15T06:21:47;58619.44;;;3.75;100.00
7836;BME280;3963;42.658;23.298;2022-11-15T06:24:14;58612.19;;;3.73;100.00
7836;BME280;3963;42.658;23.298;2022-11-15T06:26:41;58658.09;;;3.83;100.00
7836;BME280;3963;42.658;23.298;2022-11-15T06:29:07;58666.69;;;3.94;100.00
7836;BME280;3963;42.658;23.298;2022-11-15T06:31:35;58670.81;;;3.95;100.00
7836;BME280;3963;42.658;23.298;2022-11-15T06:34:02;58663.34;;;4.00;100.00
7836;BME280;3963;42.658;23.298;2022-11-15T06:36:30;58655.53;;;3.98;100.00
7836;BME280;3963;42.658;23.298;2022-11-15T06:38:57;58659.63;;;3.97;100.00
7836;BME280;3963;42.658;23.298;2022-11-15T06:41:24;58652.09;;;4.02;100.00
7836;BME280;3963;42.658;23.298;2022-11-15T06:43:50;58672.59;;;4.02;100.00
7836;BME280;3963;42.658;23.298;2022-11-15T06:46:17;58649.09;;;4.04;100.00
7836;BME280;3963;42.658;23.298;2022-11-15T06:48:44;58695.81;;;4.07;100.00
7836;BME280;3963;42.658;23.298;2022-11-15T06:51:11;58665.44;;;4.17;100.00
7836;BME280;3963;42.658;23.298;2022-11-15T06:53:39;58714.28;;;4.22;100.00
7836;BME280;3963;42.658;23.298;2022-11-15T06:56:06;58736.22;;;4.33;100.00
7836;BME280;3963;42.658;23.298;2022-11-15T06:58:34;58696.63;;;4.29;100.00
7836;BME280;3963;42.658;23.298;2022-11-15T07:01:03;58703.00;;;4.21;100.00
7836;BME280;3963;42.658;23.298;2022-11-15T07:03:30;58717.91;;;4.37;100.00
7836;BME280;3963;42.658;23.298;2022-11-15T07:05:57;58727.09;;;4.51;100.00
7836;BME280;3963;42.658;23.298;2022-11-15T07:08:28;58772.09;;;4.62;100.00
7836;BME280;3963;42.658;23.298;2022-11-15T07:10:59;58766.00;;;4.64;100.00
7836;BME280;3963;42.658;23.298;2022-11-15T07:13:28;58749.81;;;4.56;100.00
7836;BME280;3963;42.658;23.298;2022-11-15T07:15:55;58762.03;;;4.67;100.00
7836;BME280;3963;42.658;23.298;2022-11-15T07:18:22;58729.94;;;4.73;100.00
7836;BME280;3963;42.658;23.298;2022-11-15T07:20:49;58785.03;;;4.79;100.00
7836;BME280;3963;42.658;23.298;2022-11-15T07:23:15;58780.50;;;4.82;100.00
7836;BME280;3963;42.658;23.298;2022-11-15T07:25:42;58764.69;;;4.84;100.00
7836;BME280;3963;42.658;23.298;2022-11-15T07:28:10;58755.41;;;4.83;100.00
7836;BME280;3963;42.658;23.298;2022-11-15T07:30:37;58791.03;;;4.90;100.00
7836;BME280;3963;42.658;23.298;2022-11-15T07:33:04;58809.97;;;4.88;100.00
7836;BME280;3963;42.658;23.298;2022-11-15T07:35:30;58772.81;;;4.82;100.00
7836;BME280;3963;42.658;23.298;2022-11-15T07:37:58;58790.31;;;4.84;100.00
7836;BME280;3963;42.658;23.298;2022-11-15T07:40:26;58764.16;;;4.98;100.00
7836;BME280;3963;42.658;23.298;2022-11-15T07:42:58;58800.06;;;4.98;100.00
7836;BME280;3963;42.658;23.298;2022-11-15T07:45:27;58784.41;;;5.06;100.00
7836;BME280;3963;42.658;23.298;2022-11-15T07:47:54;58819.19;;;5.17;100.00
7836;BME280;3963;42.658;23.298;2022-11-15T07:50:22;58828.63;;;5.23;100.00
7836;BME280;3963;42.658;23.298;2022-11-15T07:52:54;58828.38;;;5.30;100.00
7836;BME280;3963;42.658;23.298;2022-11-15T07:55:22;58813.31;;;5.26;100.00
7836;BME280;3963;42.658;23.298;2022-11-15T07:57:49;58783.97;;;4.93;100.00
7836;BME280;3963;42.658;23.298;2022-11-15T08:00:17;58818.19;;;5.03;100.00
7836;BME280;3963;42.658;23.298;2022-11-15T08:02:45;58812.38;;;5.13;100.00
7836;BME280;3963;42.658;23.298;2022-11-15T08:05:12;58828.47;;;5.18;100.00
7836;BME280;3963;42.658;23.298;2022-11-15T08:07:39;58800.78;;;5.19;100.00
7836;BME280;3963;42.658;23.298;2022-11-15T08:10:07;58797.59;;;5.30;100.00
7836;BME280;3963;42.658;23.298;2022-11-15T08:12:34;58836.25;;;5.21;100.00
7836;BME280;3963;42.658;23.298;2022-11-15T08:15:01;58846.88;;;5.31;100.00
7836;BME280;3963;42.658;23.298;2022-11-15T08:17:28;58823.34;;;5.33;100.00
7836;BME280;3963;42.658;23.298;2022-11-15T08:19:59;58826.25;;;5.28;100.00
7836;BME280;3963;42.658;23.298;2022-11-15T08:22:26;58827.84;;;5.30;100.00
7836;BME280;3963;42.658;23.298;2022-11-15T08:24:53;58826.44;;;5.33;100.00
7836;BME280;3963;42.658;23.298;2022-11-15T08:27:19;58832.09;;;5.34;100.00
7836;BME280;3963;42.658;23.298;2022-11-15T08:29:48;58874.75;;;5.50;100.00
7836;BME280;3963;42.658;23.298;2022-11-15T08:32:15;58837.75;;;5.49;100.00
7836;BME280;3963;42.658;23.298;2022-11-15T08:34:43;58873.09;;;5.61;100.00
7836;BME280;3963;42.658;23.298;2022-11-15T08:37:11;58881.22;;;5.73;100.00
7836;BME280;3963;42.658;23.298;2022-11-15T08:39:38;58907.00;;;5.76;100.00
7836;BME280;3963;42.658;23.298;2022-11-15T08:42:04;58888.50;;;5.75;100.00
7836;BME280;3963;42.658;23.298;2022-11-15T08:44:31;58843.84;;;5.62;100.00
7836;BME280;3963;42.658;23.298;2022-11-15T08:46:58;58866.53;;;5.64;100.00
7836;BME280;3963;42.658;23.298;2022-11-15T08:49:25;58834.38;;;5.41;100.00
7836;BME280;3963;42.658;23.298;2022-11-15T08:51:51;58836.16;;;5.47;100.00
7836;BME280;3963;42.658;23.298;2022-11-15T08:54:20;58844.22;;;5.43;100.00
7836;BME280;3963;42.658;23.298;2022-11-15T08:56:46;58871.41;;;5.56;100.00
7836;BME280;3963;42.658;23.298;2022-11-15T08:59:13;58851.38;;;5.57;100.00
7836;BME280;3963;42.658;23.298;2022-11-15T09:01:40;58845.00;;;5.66;100.00
7836;BME280;3963;42.658;23.298;2022-11-15T09:04:07;58872.91;;;5.70;100.00
7836;BME280;3963;42.658;23.298;2022-11-15T09:06:34;58907.38;;;5.86;100.00
7836;BME280;3963;42.658;23.298;2022-11-15T09:09:01;58913.03;;;6.01;100.00
7836;BME280;3963;42.658;23.298;2022-11-15T09:11:30;58922.44;;;6.05;100.00
7836;BME280;3963;42.658;23.298;2022-11-15T09:13:57;58909.41;;;6.15;100.00
7836;BME280;3963;42.658;23.298;2022-11-15T09:16:24;58965.59;;;6.19;100.00
7836;BME280;3963;42.658;23.298;2022-11-15T09:18:50;58977.66;;;6.40;100.00
7836;BME280;3963;42.658;23.298;2022-11-15T09:21:17;58938.91;;;6.35;100.00
7836;BME280;3963;42.658;23.298;2022-11-15T09:23:44;58982.00;;;6.47;100.00
7836;BME280;3963;42.658;23.298;2022-11-15T09:26:11;58962.06;;;6.21;100.00
7836;BME280;3963;42.658;23.298;2022-11-15T09:28:40;58964.09;;;6.35;100.00
7836;BME280;3963;42.658;23.298;2022-11-15T09:31:07;58971.97;;;6.25;100.00
7836;BME280;3963;42.658;23.298;2022-11-15T09:33:34;58976.50;;;6.37;100.00
7836;BME280;3963;42.658;23.298;2022-11-15T09:36:03;58959.56;;;6.23;100.00
7836;BME280;3963;42.658;23.298;2022-11-15T09:38:30;58896.19;;;5.75;100.00
7836;BME280;3963;42.658;23.298;2022-11-15T09:41:13;58906.13;;;5.94;100.00
7836;BME280;3963;42.658;23.298;2022-11-15T09:43:49;58892.66;;;5.91;100.00
7836;BME280;3963;42.658;23.298;2022-11-15T09:46:28;58929.19;;;6.21;100.00
7836;BME280;3963;42.658;23.298;2022-11-15T09:48:59;58905.59;;;6.23;100.00
7836;BME280;3963;42.658;23.298;2022-11-15T09:51:30;58996.97;;;6.49;100.00
7836;BME280;3963;42.658;23.298;2022-11-15T09:54:08;59007.88;;;6.66;100.00
7836;BME280;3963;42.658;23.298;2022-11-15T09:56:39;58992.81;;;6.47;100.00
7836;BME280;3963;42.658;23.298;2022-11-15T09:59:31;59008.94;;;6.67;100.00
7836;BME280;3963;42.658;23.298;2022-11-15T10:02:17;59022.97;;;6.86;100.00
7836;BME280;3963;42.658;23.298;2022-11-15T10:04:47;59056.31;;;7.12;100.00
7836;BME280;3963;42.658;23.298;2022-11-15T10:07:16;59085.81;;;7.16;100.00
7836;BME280;3963;42.658;23.298;2022-11-15T10:09:49;59038.84;;;7.13;100.00
7836;BME280;3963;42.658;23.298;2022-11-15T10:12:18;59091.13;;;7.06;100.00
7836;BME280;3963;42.658;23.298;2022-11-15T10:14:49;59034.41;;;7.18;100.00
7836;BME280;3963;42.658;23.298;2022-11-15T10:17:38;59068.03;;;7.23;100.00
7836;BME280;3963;42.658;23.298;2022-11-15T10:20:17;59120.59;;;7.39;100.00
7836;BME280;3963;42.658;23.298;2022-11-15T10:22:49;59063.97;;;6.95;100.00
7836;BME280;3963;42.658;23.298;2022-11-15T10:25:20;59001.25;;;6.67;100.00
7836;BME280;3963;42.658;23.298;2022-11-15T10:27:53;59016.59;;;6.65;100.00
7836;BME280;3963;42.658;23.298;2022-11-15T10:30:22;59018.06;;;6.93;100.00
7836;BME280;3963;42.658;23.298;2022-11-15T10:32:50;59114.56;;;7.43;100.00
7836;BME280;3963;42.658;23.298;2022-11-15T10:35:19;59112.44;;;7.56;100.00
7836;BME280;3963;42.658;23.298;2022-11-15T10:37:47;59174.53;;;8.07;100.00
7836;BME280;3963;42.658;23.298;2022-11-15T10:40:20;59271.94;;;8.77;100.00
7836;BME280;3963;42.658;23.298;2022-11-15T10:42:48;59342.97;;;9.30;100.00
7836;BME280;3963;42.658;23.298;2022-11-15T10:45:26;59422.78;;;9.95;100.00
7836;BME280;3963;42.658;23.298;2022-11-15T10:47:53;59515.41;;;10.53;100.00
7836;BME280;3963;42.658;23.298;2022-11-15T10:50:28;59560.47;;;10.98;100.00
7836;BME280;3963;42.658;23.298;2022-11-15T10:52:55;59611.09;;;11.39;100.00
7836;BME280;3963;42.658;23.298;2022-11-15T10:55:25;59640.59;;;11.66;100.00
7836;BME280;3963;42.658;23.298;2022-11-15T10:57:54;59575.09;;;11.17;100.00
7836;BME280;3963;42.658;23.298;2022-11-15T11:00:32;59685.31;;;11.70;100.00
7836;BME280;3963;42.658;23.298;2022-11-15T11:03:02;59685.84;;;11.85;100.00
7836;BME280;3963;42.658;23.298;2022-11-15T11:05:32;59682.88;;;12.04;100.00
7836;BME280;3963;42.658;23.298;2022-11-15T11:08:00;59702.84;;;11.96;100.00
7836;BME280;3963;42.658;23.298;2022-11-15T11:10:28;59742.13;;;12.20;100.00
7836;BME280;3963;42.658;23.298;2022-11-15T11:12:55;59770.50;;;12.45;100.00
7836;BME280;3963;42.658;23.298;2022-11-15T11:15:26;59770.75;;;12.38;100.00
7836;BME280;3963;42.658;23.298;2022-11-15T11:18:05;59737.56;;;12.24;100.00
7836;BME280;3963;42.658;23.298;2022-11-15T11:20:38;59811.06;;;12.61;100.00
7836;BME280;3963;42.658;23.298;2022-11-15T11:23:19;59792.59;;;12.53;100.00
7836;BME280;3963;42.658;23.298;2022-11-15T11:25:54;59845.44;;;12.93;100.00
7836;BME280;3963;42.658;23.298;2022-11-15T11:28:36;59827.34;;;12.96;100.00
7836;BME280;3963;42.658;23.298;2022-11-15T11:31:14;59793.94;;;12.76;100.00
7836;BME280;3963;42.658;23.298;2022-11-15T11:33:51;59845.00;;;12.81;100.00
7836;BME280;3963;42.658;23.298;2022-11-15T11:36:25;59856.81;;;13.06;100.00
7836;BME280;3963;42.658;23.298;2022-11-15T11:39:13;59846.16;;;12.99;100.00
7836;BME280;3963;42.658;23.298;2022-11-15T11:41:55;59781.22;;;12.69;100.00
7836;BME280;3963;42.658;23.298;2022-11-15T11:44:33;59788.50;;;12.54;100.00
7836;BME280;3963;42.658;23.298;2022-11-15T11:47:03;59795.03;;;12.48;100.00
7836;BME280;3963;42.658;23.298;2022-11-15T11:49:40;59757.06;;;12.32;100.00
7836;BME280;3963;42.658;23.298;2022-11-15T11:52:11;59767.91;;;12.15;100.00
7836;BME280;3963;42.658;23.298;2022-11-15T11:54:47;59690.50;;;11.84;100.00
7836;BME280;3963;42.658;23.298;2022-11-15T11:57:23;59704.81;;;11.78;100.00
7836;BME280;3963;42.658;23.298;2022-11-15T11:59:57;59701.25;;;11.80;100.00
7836;BME280;3963;42.658;23.298;2022-11-15T12:02:28;59626.94;;;11.32;100.00
7836;BME280;3963;42.658;23.298;2022-11-15T12:05:04;59604.94;;;11.11;100.00
7836;BME280;3963;42.658;23.298;2022-11-15T12:07:35;59598.72;;;10.81;100.00
7836;BME280;3963;42.658;23.298;2022-11-15T12:10:14;59542.63;;;10.77;100.00
7836;BME280;3963;42.658;23.298;2022-11-15T12:12:49;59487.91;;;10.37;100.00
7836;BME280;3963;42.658;23.298;2022-11-15T12:15:18;59500.59;;;10.30;100.00
7836;BME280;3963;42.658;23.298;2022-11-15T12:17:46;59434.03;;;10.06;100.00
7836;BME280;3963;42.658;23.298;2022-11-15T12:20:18;59464.97;;;10.03;100.00
7836;BME280;3963;42.658;23.298;2022-11-15T12:22:51;59494.56;;;10.07;100.00
7836;BME280;3963;42.658;23.298;2022-11-15T12:25:22;59474.72;;;10.15;100.00
7836;BME280;3963;42.658;23.298;2022-11-15T12:27:54;59465.97;;;10.17;100.00
7836;BME280;3963;42.658;23.298;2022-11-15T12:30:23;59442.75;;;10.05;100.00
7836;BME280;3963;42.658;23.298;2022-11-15T12:32:55;59464.44;;;10.03;100.00
7836;BME280;3963;42.658;23.298;2022-11-15T12:35:30;59474.41;;;9.93;100.00
7836;BME280;3963;42.658;23.298;2022-11-15T12:37:59;59430.47;;;9.93;100.00
7836;BME280;3963;42.658;23.298;2022-11-15T12:40:37;59426.00;;;9.98;100.00
7836;BME280;3963;42.658;23.298;2022-11-15T12:46:20;59420.47;;;9.88;100.00
7836;BME280;3963;42.658;23.298;2022-11-15T12:48:53;59435.19;;;9.95;100.00
7836;BME280;3963;42.658;23.298;2022-11-15T12:52:03;59409.34;;;9.66;100.00
7836;BME280;3963;42.658;23.298;2022-11-15T12:57:32;59422.09;;;9.61;100.00
7836;BME280;3963;42.658;23.298;2022-11-15T13:00:00;59377.63;;;9.45;100.00
7836;BME280;3963;42.658;23.298;2022-11-15T13:02:30;59366.13;;;9.27;100.00
7836;BME280;3963;42.658;23.298;2022-11-15T13:08:00;59359.25;;;9.23;100.00
7836;BME280;3963;42.658;23.298;2022-11-15T13:10:32;59363.63;;;9.30;100.00
7836;BME280;3963;42.658;23.298;2022-11-15T13:13:02;59336.38;;;9.19;100.00
7836;BME280;3963;42.658;23.298;2022-11-15T13:15:56;59366.84;;;9.33;100.00
7836;BME280;3963;42.658;23.298;2022-11-15T13:18:35;59379.03;;;9.42;100.00
7836;BME280;3963;42.658;23.298;2022-11-15T13:21:05;59423.88;;;9.53;100.00
7836;BME280;3963;42.658;23.298;2022-11-15T13:23:54;59406.66;;;9.63;100.00
7836;BME280;3963;42.658;23.298;2022-11-15T13:26:22;59410.13;;;9.59;100.00
7836;BME280;3963;42.658;23.298;2022-11-15T13:28:51;59402.22;;;9.39;100.00
7836;BME280;3963;42.658;23.298;2022-11-15T13:31:40;59377.69;;;9.48;100.00
7836;BME280;3963;42.658;23.298;2022-11-15T13:34:20;59395.06;;;9.57;100.00
7836;BME280;3963;42.658;23.298;2022-11-15T13:36:49;59399.78;;;9.59;100.00
7836;BME280;3963;42.658;23.298;2022-11-15T13:39:26;59441.88;;;9.65;100.00
7836;BME280;3963;42.658;23.298;2022-11-15T13:41:54;59401.59;;;9.51;100.00